ěÝzenÝ letovÚho provozu ╚eskÚ republiky
Letiste: LKLN Aktualizace: 16.04.2024 07:56:38  UTC
 METAR LKLN 16.04. 08:00 ...
METAR LKLN 160800Z AUTO 26010G20KT 210V300 9999 // FEW018 BKN024 06/01 Q1006=